Terminal Aerodrome Forecast
Issued by NWS

Home | Current Version | Previous Version | Text Only | Print | Product List | Glossary On
Versions: 1 2 3 4 5 6 7 8 9 10 11 12 13 14
000
FTUS46 KLOX 282300 RRA
TAFSBA
TAF
KSBA 282340Z 0100/0124 26012KT P6SM VCSH SCT040
     FM010200 33007KT 6SM -SHRA SCT025 BKN050
     FM010800 VRB03KT 6SM -SHRA SCT015 BKN035 BKN070
     FM011200 VRB03KT P6SM VCSH SCT025 OVC040
     FM011700 15004KT P6SM VCSH SCT025 BKN045
     FM012000 19006KT P6SM VCSH SCT030 BKN050
      TEMPO 0120/0122 6SM -SHRA BKN035
     FM012200 29010KT P6SM VCSH SCT025 BKN040
      TEMPO 0122/0124 6SM -SHRA BKN035=

USA.gov is the U.S. government's official web portal to all federal, state and local government web resources and services.